createdAt,value
2019-05-14T00:01:08.475Z,8.52
2019-05-14T00:03:41.359Z,8.48
2019-05-14T00:06:13.765Z,8.43
2019-05-14T00:08:46.016Z,8.42
2019-05-14T00:11:18.289Z,8.43
2019-05-14T00:13:52.041Z,8.43
2019-05-14T00:16:24.570Z,8.42
2019-05-14T00:18:56.903Z,8.41
2019-05-14T00:21:31.500Z,8.39
2019-05-14T00:24:03.150Z,8.35
2019-05-14T00:26:35.392Z,8.32
2019-05-14T00:29:11.162Z,8.30
2019-05-14T00:31:42.842Z,8.26
2019-05-14T00:34:16.271Z,8.25
2019-05-14T00:36:48.312Z,8.23
2019-05-14T00:39:21.351Z,8.18
2019-05-14T00:41:53.826Z,8.16
2019-05-14T00:44:26.066Z,8.13
2019-05-14T00:46:58.279Z,8.09
2019-05-14T00:49:31.698Z,8.09
2019-05-14T00:52:04.012Z,8.08
2019-05-14T00:54:36.208Z,8.00
2019-05-14T00:57:08.420Z,7.97
2019-05-14T00:59:41.769Z,7.95
2019-05-14T01:02:14.266Z,7.96
2019-05-14T01:04:46.513Z,7.92
2019-05-14T01:07:21.003Z,7.91
2019-05-14T01:09:53.696Z,7.88
2019-05-14T01:12:26.972Z,7.85
2019-05-14T01:15:09.641Z,7.79
2019-05-14T01:17:33.142Z,7.76
2019-05-14T01:20:05.393Z,7.71
2019-05-14T01:22:37.676Z,7.72
2019-05-14T01:25:11.916Z,7.71
2019-05-14T01:27:45.973Z,7.70
2019-05-14T01:30:18.200Z,7.72
2019-05-14T01:32:51.126Z,7.71
2019-05-14T01:35:25.610Z,7.64
2019-05-14T01:37:57.899Z,7.61
2019-05-14T01:40:31.510Z,7.58
2019-05-14T01:43:04.032Z,7.54
2019-05-14T01:45:36.244Z,7.51
2019-05-14T01:48:08.440Z,7.47
2019-05-14T01:50:41.409Z,7.44
2019-05-14T01:53:14.158Z,7.42
2019-05-14T01:55:46.403Z,7.38
2019-05-14T01:58:18.693Z,7.36
2019-05-14T02:00:52.394Z,7.34
2019-05-14T02:03:24.826Z,7.32
2019-05-14T02:05:58.180Z,7.28
2019-05-14T02:08:32.313Z,7.29
2019-05-14T02:11:04.363Z,7.29
2019-05-14T02:13:36.758Z,7.25
2019-05-14T02:16:12.768Z,7.23
2019-05-14T02:18:43.114Z,7.26
2019-05-14T02:21:15.314Z,7.30
2019-05-14T02:23:47.534Z,7.31
2019-05-14T02:26:21.942Z,7.31
2019-05-14T02:28:53.695Z,7.27
2019-05-14T02:31:29.024Z,7.25
2019-05-14T02:33:59.939Z,7.24
2019-05-14T02:36:32.189Z,7.22
2019-05-14T02:39:04.421Z,7.23
2019-05-14T02:41:39.121Z,7.22
2019-05-14T02:44:12.276Z,7.22
2019-05-14T02:46:46.722Z,7.21
2019-05-14T02:49:19.602Z,7.20
2019-05-14T02:51:51.960Z,7.21
2019-05-14T02:54:24.212Z,7.20
2019-05-14T02:56:59.627Z,7.19
2019-05-14T02:59:30.871Z,7.18
2019-05-14T03:02:03.211Z,7.16
2019-05-14T03:04:35.483Z,7.17
2019-05-14T03:07:11.012Z,7.21
2019-05-14T03:09:43.900Z,7.23
2019-05-14T03:12:19.213Z,7.22
2019-05-14T03:14:50.323Z,7.20
2019-05-14T03:17:24.806Z,7.17
2019-05-14T03:19:59.956Z,7.11
2019-05-14T03:22:43.202Z,7.04
2019-05-14T03:25:04.907Z,7.03
2019-05-14T03:27:40.295Z,7.01
2019-05-14T03:30:13.206Z,7.02
2019-05-14T03:32:45.039Z,7.00
2019-05-14T03:35:22.577Z,6.97
2019-05-14T03:37:51.216Z,6.93
2019-05-14T03:40:23.431Z,6.90
2019-05-14T03:42:55.811Z,6.89
2019-05-14T03:45:30.050Z,6.89
2019-05-14T03:48:02.162Z,6.91
2019-05-14T03:50:34.397Z,6.89
2019-05-14T03:53:09.826Z,6.87
2019-05-14T03:55:41.006Z,6.85
2019-05-14T03:58:13.301Z,6.85
2019-05-14T04:00:45.503Z,6.85
2019-05-14T04:03:19.819Z,6.86
2019-05-14T04:05:51.677Z,6.86
2019-05-14T04:08:23.933Z,6.87
2019-05-14T04:10:59.001Z,6.90
2019-05-14T04:13:30.519Z,6.94
2019-05-14T04:16:02.756Z,6.98
2019-05-14T04:18:35.013Z,7.04
2019-05-14T04:21:10.131Z,7.16
2019-05-14T04:23:41.167Z,7.25
2019-05-14T04:26:13.357Z,7.30
2019-05-14T04:28:45.576Z,7.33
2019-05-14T04:31:19.136Z,7.37
2019-05-14T04:33:51.664Z,7.45
2019-05-14T04:36:23.895Z,7.47
2019-05-14T04:38:56.128Z,7.55
2019-05-14T04:41:29.847Z,7.57
2019-05-14T04:44:02.420Z,7.57
2019-05-14T04:46:34.652Z,7.58
2019-05-14T04:49:09.660Z,7.59
2019-05-14T04:51:41.290Z,7.61
2019-05-14T04:54:15.474Z,7.67
2019-05-14T04:56:50.862Z,7.69
2019-05-14T04:59:23.027Z,7.76
2019-05-14T05:01:55.254Z,7.82
2019-05-14T05:04:29.820Z,7.93
2019-05-14T05:07:01.473Z,8.03
2019-05-14T05:09:33.933Z,8.10
2019-05-14T05:12:08.862Z,8.18
2019-05-14T05:14:40.171Z,8.34
2019-05-14T05:17:12.519Z,8.39
2019-05-14T05:19:45.936Z,8.43
2019-05-14T05:22:19.599Z,8.48
2019-05-14T05:24:52.085Z,8.51
2019-05-14T05:27:28.640Z,8.52
2019-05-14T05:30:00.494Z,8.56
2019-05-14T05:32:32.684Z,8.59
2019-05-14T05:35:04.918Z,8.59
2019-05-14T05:37:38.442Z,8.61
2019-05-14T05:40:10.956Z,8.69
2019-05-14T05:42:43.386Z,8.67
2019-05-14T05:45:15.719Z,8.63
2019-05-14T05:47:57.764Z,8.62
2019-05-14T05:50:22.575Z,8.67
2019-05-14T05:52:54.834Z,8.74
2019-05-14T05:55:28.768Z,8.80
2019-05-14T05:58:01.284Z,8.89
2019-05-14T06:00:33.717Z,8.99
2019-05-14T06:03:10.236Z,9.16
2019-05-14T06:05:40.034Z,9.42
2019-05-14T06:08:12.295Z,9.52
2019-05-14T06:10:44.641Z,9.68
2019-05-14T06:13:18.298Z,9.75
2019-05-14T06:15:52.244Z,9.72
2019-05-14T06:18:25.145Z,9.70
2019-05-14T06:20:58.510Z,9.64
2019-05-14T06:23:32.076Z,9.59
2019-05-14T06:26:04.320Z,9.58
2019-05-14T06:28:40.918Z,9.65
2019-05-14T06:31:11.053Z,9.80
2019-05-14T06:33:43.298Z,9.91
2019-05-14T06:36:15.550Z,9.94
2019-05-14T06:38:49.440Z,9.87
2019-05-14T06:41:24.110Z,9.85
2019-05-14T06:43:58.904Z,9.95
2019-05-14T06:46:30.308Z,10.03
2019-05-14T06:49:02.633Z,10.17
2019-05-14T06:51:39.302Z,10.31
2019-05-14T06:54:10.834Z,10.36
2019-05-14T06:56:43.360Z,10.45
2019-05-14T06:59:18.015Z,10.65
2019-05-14T07:01:49.666Z,10.69
2019-05-14T07:04:21.900Z,10.52
2019-05-14T07:06:54.290Z,10.50
2019-05-14T07:09:29.066Z,10.55
2019-05-14T07:12:01.558Z,10.79
2019-05-14T07:14:34.132Z,10.86
2019-05-14T07:17:08.853Z,10.94
2019-05-14T07:19:40.307Z,11.05
2019-05-14T07:22:12.541Z,11.19
2019-05-14T07:24:44.832Z,11.30
2019-05-14T07:27:19.280Z,11.52
2019-05-14T07:29:51.175Z,11.75
2019-05-14T07:32:23.393Z,11.76
2019-05-14T07:34:55.683Z,11.99
2019-05-14T07:37:28.562Z,12.28
2019-05-14T07:40:01.118Z,12.40
2019-05-14T07:42:33.390Z,12.39
2019-05-14T07:45:05.425Z,12.45
2019-05-14T07:47:39.062Z,12.52
2019-05-14T07:50:11.334Z,12.22
2019-05-14T07:52:45.732Z,12.12
2019-05-14T07:55:18.531Z,12.31
2019-05-14T07:57:50.930Z,12.48
2019-05-14T08:00:23.189Z,12.60
2019-05-14T08:02:55.401Z,12.55
2019-05-14T08:05:28.756Z,12.55
2019-05-14T08:08:01.162Z,12.24
2019-05-14T08:10:33.418Z,12.20
2019-05-14T08:13:05.724Z,12.32
2019-05-14T08:15:38.683Z,12.44
2019-05-14T08:18:11.080Z,12.26
2019-05-14T08:20:43.399Z,12.16
2019-05-14T08:23:15.434Z,12.28
2019-05-14T08:25:48.245Z,12.66
2019-05-14T08:28:21.304Z,13.06
2019-05-14T08:30:53.701Z,13.20
2019-05-14T08:33:25.937Z,13.30
2019-05-14T08:35:58.372Z,13.35
2019-05-14T08:38:31.863Z,13.29
2019-05-14T08:41:04.224Z,13.27
2019-05-14T08:43:39.335Z,13.31
2019-05-14T08:46:10.554Z,13.31
2019-05-14T08:48:42.893Z,13.25
2019-05-14T08:51:15.142Z,13.22
2019-05-14T08:53:50.333Z,13.18
2019-05-14T08:56:21.489Z,13.08
2019-05-14T08:58:53.736Z,13.17
2019-05-14T09:01:25.956Z,13.17
2019-05-14T09:03:59.565Z,13.15
2019-05-14T09:06:32.204Z,13.06
2019-05-14T09:09:04.524Z,13.14
2019-05-14T09:11:44.619Z,13.10
2019-05-14T09:14:11.538Z,13.03
2019-05-14T09:16:47.776Z,13.16
2019-05-14T09:19:19.301Z,13.08
2019-05-14T09:21:52.023Z,13.18
2019-05-14T09:24:24.256Z,13.53
2019-05-14T09:26:59.000Z,13.61
2019-05-14T09:29:30.844Z,13.84
2019-05-14T09:32:03.053Z,13.97
2019-05-14T09:34:35.197Z,14.05
2019-05-14T09:37:08.623Z,13.95
2019-05-14T09:39:41.210Z,13.80
2019-05-14T09:42:13.674Z,13.82
2019-05-14T09:44:45.911Z,13.91
2019-05-14T09:47:18.953Z,14.00
2019-05-14T09:49:51.488Z,14.07
2019-05-14T09:52:24.689Z,14.19
2019-05-14T09:54:58.592Z,14.37
2019-05-14T09:57:30.886Z,14.52
2019-05-14T10:00:03.178Z,14.56
2019-05-14T10:02:39.359Z,14.54
2019-05-14T10:05:10.630Z,14.66
2019-05-14T10:07:42.928Z,14.75
2019-05-14T10:10:15.267Z,14.82
2019-05-14T10:12:54.105Z,14.88
2019-05-14T10:15:21.711Z,14.72
2019-05-14T10:17:53.938Z,14.79
2019-05-14T10:20:40.445Z,14.91
2019-05-14T10:23:00.196Z,15.03
2019-05-14T10:25:32.503Z,15.04
2019-05-14T10:28:04.711Z,15.08
2019-05-14T10:30:37.149Z,15.28
2019-05-14T10:33:14.783Z,15.48
2019-05-14T10:35:43.371Z,15.55
2019-05-14T10:38:15.683Z,15.48
2019-05-14T10:40:47.852Z,15.68
2019-05-14T10:43:20.334Z,15.72
2019-05-14T10:45:52.696Z,15.65
2019-05-14T10:48:26.265Z,15.65
2019-05-14T10:51:03.268Z,15.91
2019-05-14T10:53:32.659Z,15.97
2019-05-14T10:56:05.109Z,16.11
2019-05-14T10:58:37.328Z,16.29
2019-05-14T11:01:11.415Z,16.39
2019-05-14T11:03:43.772Z,16.44
2019-05-14T11:06:18.535Z,16.34
2019-05-14T11:08:50.423Z,16.41
2019-05-14T11:11:22.657Z,16.53
2019-05-14T11:13:54.939Z,16.67
2019-05-14T11:16:28.365Z,16.67
2019-05-14T11:19:02.037Z,16.74
2019-05-14T11:21:34.300Z,16.88
2019-05-14T11:24:09.467Z,17.06
2019-05-14T11:26:41.600Z,17.39
2019-05-14T11:29:13.806Z,17.66
2019-05-14T11:31:48.374Z,17.70
2019-05-14T11:34:20.172Z,17.64
2019-05-14T11:36:52.702Z,17.70
2019-05-14T11:39:24.942Z,17.91
2019-05-14T11:41:58.999Z,18.19
2019-05-14T11:44:31.151Z,18.46
2019-05-14T11:47:03.375Z,18.71
2019-05-14T11:49:35.422Z,20.90
2019-05-14T11:52:11.389Z,20.90
2019-05-14T11:54:41.396Z,23.18
2019-05-14T11:57:13.664Z,25.29
2019-05-14T11:59:46.967Z,27.01
2019-05-14T12:02:19.818Z,28.33
2019-05-14T12:04:52.714Z,29.28
2019-05-14T12:07:27.922Z,29.42
2019-05-14T12:10:00.445Z,29.78
2019-05-14T12:12:33.515Z,30.23
2019-05-14T12:15:08.707Z,30.75
2019-05-14T12:17:40.944Z,31.97
2019-05-14T12:20:13.971Z,32.45
2019-05-14T12:22:48.724Z,32.94
2019-05-14T12:25:21.379Z,32.05
2019-05-14T12:27:54.528Z,31.39
2019-05-14T12:30:28.690Z,31.59
2019-05-14T12:33:01.936Z,32.11
2019-05-14T12:35:34.789Z,32.54
2019-05-14T12:38:09.884Z,33.21
2019-05-14T12:40:42.221Z,33.71
2019-05-14T12:43:15.112Z,33.89
2019-05-14T12:45:48.025Z,32.76
2019-05-14T12:48:20.914Z,32.35
2019-05-14T12:50:54.032Z,33.19
2019-05-14T12:53:28.775Z,33.79
2019-05-14T12:56:02.921Z,34.30
2019-05-14T12:58:44.893Z,35.08
2019-05-14T13:01:12.808Z,35.32
2019-05-14T13:03:45.490Z,35.30
2019-05-14T13:06:19.226Z,35.98
2019-05-14T13:08:52.165Z,35.48
2019-05-14T13:11:25.070Z,34.17
2019-05-14T13:13:58.727Z,33.70
2019-05-14T13:16:31.820Z,33.69
2019-05-14T13:19:04.731Z,34.88
2019-05-14T13:21:39.000Z,35.13
2019-05-14T13:24:12.130Z,35.46
2019-05-14T13:26:49.489Z,34.60
2019-05-14T13:29:21.622Z,35.08
2019-05-14T13:31:54.565Z,35.38
2019-05-14T13:34:28.928Z,34.92
2019-05-14T13:37:01.923Z,34.92
2019-05-14T13:39:35.662Z,35.80
2019-05-14T13:42:11.720Z,35.33
2019-05-14T13:44:45.239Z,34.86
2019-05-14T13:47:18.356Z,34.97
2019-05-14T13:49:51.388Z,35.46
2019-05-14T13:52:24.201Z,36.21
2019-05-14T13:54:57.021Z,36.40
2019-05-14T13:57:29.885Z,36.41
2019-05-14T14:00:03.709Z,35.07
2019-05-14T14:02:40.174Z,31.72
2019-05-14T14:05:13.027Z,28.70
2019-05-14T14:07:48.374Z,27.27
2019-05-14T14:10:20.060Z,25.87
2019-05-14T14:12:52.315Z,24.27
2019-05-14T14:15:24.696Z,23.32
2019-05-14T14:17:56.959Z,22.78
2019-05-14T14:20:29.428Z,22.56
2019-05-14T14:23:18.797Z,22.36
2019-05-14T14:25:39.524Z,21.97
2019-05-14T14:28:11.999Z,21.53
2019-05-14T14:30:44.055Z,21.47
2019-05-14T14:33:18.513Z,21.21
2019-05-14T14:35:50.393Z,20.85
2019-05-14T14:38:22.710Z,20.54
2019-05-14T14:40:54.782Z,20.43
2019-05-14T14:43:29.448Z,20.33
2019-05-14T14:46:05.936Z,20.07
2019-05-14T14:48:35.763Z,19.90
2019-05-14T14:51:08.458Z,19.77
2019-05-14T14:53:52.526Z,19.70
2019-05-14T14:56:14.826Z,19.39
2019-05-14T14:58:49.415Z,19.07
2019-05-14T15:01:21.179Z,18.94
2019-05-14T15:03:53.638Z,18.96
2019-05-14T15:06:25.876Z,18.92
2019-05-14T15:08:58.805Z,18.78
2019-05-14T15:11:31.263Z,18.71
2019-05-14T15:14:03.791Z,18.65
2019-05-14T15:16:38.795Z,18.63
2019-05-14T15:19:09.966Z,18.64
2019-05-14T15:21:42.267Z,18.58
2019-05-14T15:24:16.016Z,18.66
2019-05-14T15:26:48.347Z,18.63
2019-05-14T15:29:20.639Z,18.75
2019-05-14T15:31:52.878Z,18.78
2019-05-14T15:34:25.319Z,18.87
2019-05-14T15:36:59.890Z,18.90
2019-05-14T15:39:31.837Z,19.03
2019-05-14T15:42:05.940Z,19.07
2019-05-14T15:44:48.885Z,19.00
2019-05-14T15:47:12.244Z,18.93
2019-05-14T15:49:45.250Z,18.76
2019-05-14T15:52:19.198Z,18.60
2019-05-14T15:54:51.994Z,18.52
2019-05-14T15:57:24.370Z,18.36
2019-05-14T16:00:00.787Z,18.28
2019-05-14T16:02:30.740Z,18.22
2019-05-14T16:05:04.371Z,18.28
2019-05-14T16:07:39.055Z,18.37
2019-05-14T16:10:10.813Z,18.43
2019-05-14T16:12:43.132Z,18.74
2019-05-14T16:15:15.398Z,19.38
2019-05-14T16:18:04.433Z,19.99
2019-05-14T16:20:21.791Z,19.54
2019-05-14T16:22:54.900Z,19.21
2019-05-14T16:25:28.647Z,19.04
2019-05-14T16:28:01.063Z,18.80
2019-05-14T16:30:33.503Z,18.55
2019-05-14T16:33:05.759Z,18.45
2019-05-14T16:35:39.297Z,18.46
2019-05-14T16:38:11.718Z,18.83
2019-05-14T16:40:44.021Z,20.01
2019-05-14T16:43:16.283Z,19.85
2019-05-14T16:45:49.235Z,19.65
2019-05-14T16:48:21.755Z,19.61
2019-05-14T16:50:54.021Z,19.78
2019-05-14T16:53:26.243Z,20.83
2019-05-14T16:55:58.557Z,22.48
2019-05-14T16:58:30.751Z,23.73
2019-05-14T17:01:03.045Z,25.52
2019-05-14T17:03:39.691Z,27.20
2019-05-14T17:06:12.652Z,28.00
2019-05-14T17:08:45.464Z,28.69
2019-05-14T17:11:18.744Z,28.96
2019-05-14T17:13:51.553Z,28.96
2019-05-14T17:16:24.444Z,28.82
2019-05-14T17:18:59.099Z,27.01
2019-05-14T17:21:31.586Z,25.45
2019-05-14T17:24:04.640Z,25.09
2019-05-14T17:26:38.095Z,25.86
2019-05-14T17:29:11.421Z,25.43
2019-05-14T17:31:43.861Z,24.59
2019-05-14T17:34:18.434Z,25.40
2019-05-14T17:36:51.054Z,26.39
2019-05-14T17:39:24.393Z,27.25
2019-05-14T17:41:58.952Z,27.87
2019-05-14T17:44:32.936Z,27.53
2019-05-14T17:47:05.209Z,25.48
2019-05-14T17:49:39.182Z,23.70
2019-05-14T17:52:11.616Z,21.88
2019-05-14T17:54:43.856Z,20.66
2019-05-14T17:57:16.133Z,19.59
2019-05-14T17:59:49.616Z,18.90
2019-05-14T18:02:22.133Z,18.28
2019-05-14T18:04:56.351Z,17.71
2019-05-14T18:07:28.689Z,17.44
2019-05-14T18:10:01.035Z,17.19
2019-05-14T18:12:33.516Z,16.98
2019-05-14T18:15:05.759Z,16.83
2019-05-14T18:17:39.233Z,16.72
2019-05-14T18:20:12.002Z,16.62
2019-05-14T18:22:44.227Z,16.50
2019-05-14T18:25:18.358Z,16.35
2019-05-14T18:27:50.755Z,16.21
2019-05-14T18:30:22.978Z,16.05
2019-05-14T18:32:55.312Z,15.94
2019-05-14T18:35:29.469Z,15.82
2019-05-14T18:38:01.570Z,15.77
2019-05-14T18:40:33.867Z,15.70
2019-05-14T18:43:08.583Z,15.60
2019-05-14T18:45:40.181Z,15.47
2019-05-14T18:48:12.298Z,15.38
2019-05-14T18:50:44.561Z,15.30
2019-05-14T18:53:18.914Z,15.27
2019-05-14T18:55:50.798Z,15.19
2019-05-14T18:58:23.071Z,15.09
2019-05-14T19:00:59.291Z,15.01
2019-05-14T19:03:39.252Z,14.98
2019-05-14T19:06:10.480Z,14.89
2019-05-14T19:08:42.738Z,14.78
2019-05-14T19:11:14.983Z,14.72
2019-05-14T19:13:48.351Z,14.66
2019-05-14T19:16:20.924Z,14.61
2019-05-14T19:18:53.318Z,14.53
2019-05-14T19:21:25.579Z,14.46
2019-05-14T19:23:58.078Z,14.37
2019-05-14T19:26:34.352Z,14.29
2019-05-14T19:29:04.239Z,14.23
2019-05-14T19:31:38.485Z,14.16
2019-05-14T19:34:10.263Z,14.09
2019-05-14T19:36:42.449Z,14.05
2019-05-14T19:39:14.752Z,13.97
2019-05-14T19:41:48.413Z,13.92
2019-05-14T19:44:20.879Z,13.86
2019-05-14T19:46:53.224Z,13.81
2019-05-14T19:49:25.530Z,13.77
2019-05-14T19:51:58.821Z,13.75
2019-05-14T19:54:31.339Z,13.72
2019-05-14T19:57:03.570Z,13.65
2019-05-14T19:59:38.187Z,13.60
2019-05-14T20:02:10.020Z,13.53
2019-05-14T20:04:42.395Z,13.47
2019-05-14T20:07:14.791Z,13.42
2019-05-14T20:09:48.290Z,13.38
2019-05-14T20:12:20.765Z,13.36
2019-05-14T20:14:52.985Z,13.31
2019-05-14T20:17:25.285Z,13.28
2019-05-14T20:19:57.939Z,13.24
2019-05-14T20:22:30.467Z,13.17
2019-05-14T20:25:02.730Z,13.11
2019-05-14T20:27:38.657Z,13.07
2019-05-14T20:30:10.460Z,13.01
2019-05-14T20:32:44.404Z,12.97
2019-05-14T20:35:30.675Z,12.91
2019-05-14T20:37:51.226Z,12.85
2019-05-14T20:40:23.496Z,12.80
2019-05-14T20:42:55.733Z,12.79
2019-05-14T20:45:28.860Z,12.75
2019-05-14T20:48:01.725Z,12.73
2019-05-14T20:50:33.936Z,12.67
2019-05-14T20:53:08.399Z,12.62
2019-05-14T20:55:40.290Z,12.55
2019-05-14T20:58:12.350Z,12.48
2019-05-14T21:00:44.625Z,12.45
2019-05-14T21:03:18.730Z,12.42
2019-05-14T21:05:50.855Z,12.39
2019-05-14T21:08:23.150Z,12.35
2019-05-14T21:10:55.441Z,12.28
2019-05-14T21:13:27.896Z,12.24
2019-05-14T21:16:00.121Z,12.20
2019-05-14T21:18:35.162Z,12.16
2019-05-14T21:21:10.873Z,12.10
2019-05-14T21:23:40.578Z,12.03
2019-05-14T21:26:12.843Z,11.97
2019-05-14T21:28:48.723Z,11.98
2019-05-14T21:31:21.245Z,11.91
2019-05-14T21:33:53.628Z,11.83
2019-05-14T21:36:28.244Z,11.78
2019-05-14T21:38:59.915Z,11.76
2019-05-14T21:41:32.165Z,11.71
2019-05-14T21:44:04.443Z,11.65
2019-05-14T21:46:39.478Z,11.62
2019-05-14T21:49:11.358Z,11.58
2019-05-14T21:51:43.838Z,11.52
2019-05-14T21:54:16.177Z,11.49
2019-05-14T21:56:49.563Z,11.45
2019-05-14T22:01:54.119Z,11.40
2019-05-14T22:04:28.859Z,11.38
2019-05-14T22:07:00.332Z,11.35
2019-05-14T22:09:32.642Z,11.31
2019-05-14T22:12:04.890Z,11.29
2019-05-14T22:14:37.972Z,11.24
2019-05-14T22:17:10.407Z,11.21
2019-05-14T22:19:42.753Z,11.19
2019-05-14T22:22:15.010Z,11.18
2019-05-14T22:24:48.932Z,11.14
2019-05-14T22:27:21.351Z,11.11
2019-05-14T22:29:53.623Z,11.06
2019-05-14T22:32:25.877Z,11.05
2019-05-14T22:34:58.629Z,10.99
2019-05-14T22:37:31.020Z,10.94
2019-05-14T22:40:03.259Z,10.87
2019-05-14T22:42:35.616Z,10.80
2019-05-14T22:45:09.358Z,10.73
2019-05-14T22:47:42.067Z,10.69
2019-05-14T22:50:14.323Z,10.66
2019-05-14T22:52:48.559Z,10.63
2019-05-14T22:55:20.548Z,10.61
2019-05-14T22:57:52.972Z,10.56
2019-05-14T23:00:25.302Z,10.49
2019-05-14T23:02:57.538Z,10.44
2019-05-14T23:05:29.820Z,10.40
2019-05-14T23:08:02.079Z,10.38
2019-05-14T23:10:34.731Z,10.36
2019-05-14T23:13:09.303Z,10.35
2019-05-14T23:15:41.159Z,10.31
2019-05-14T23:18:13.408Z,10.26
2019-05-14T23:20:45.661Z,10.25
2019-05-14T23:23:18.540Z,10.24
2019-05-14T23:25:50.903Z,10.21
2019-05-14T23:28:23.444Z,10.15
2019-05-14T23:30:55.679Z,10.14
2019-05-14T23:33:28.873Z,10.13
2019-05-14T23:36:01.298Z,10.08
2019-05-14T23:38:33.540Z,10.01
2019-05-14T23:41:08.435Z,9.95
2019-05-14T23:43:39.823Z,9.92
2019-05-14T23:46:12.448Z,9.93
2019-05-14T23:48:44.972Z,9.94
2019-05-14T23:51:18.200Z,9.92
2019-05-14T23:53:51.198Z,9.86
2019-05-14T23:56:23.452Z,9.84
2019-05-14T23:59:01.357Z,9.81
